Terminal Aerodrome Forecast
Issued by NWS

Current Version | Previous Version | Text Only | Print | Product List | Glossary On
Versions: 1 2 3 4 5 6 7 8 9 10 11 12 13 14 15 16 17 18 19 20 21
000
FTUS41 KGYX 312300
TAFAUG
TAF
KAUG 312320Z 0100/0124 20004KT P6SM SCT050 BKN250
     FM010400 VRB03KT 3SM BR FEW002 SCT250
     FM011200 17005KT P6SM SCT250
     FM011500 19006KT P6SM SCT045
      TEMPO 0118/0122 BKN045=

USA.gov is the U.S. government's official web portal to all federal, state and local government web resources and services.